sensor_id;sensor_type;location;lat;lon;timestamp;temperature;humidity
44767;DHT22;30487;48.716;9.272;2022-09-09T00:00:16;16.80;99.90
44767;DHT22;30487;48.716;9.272;2022-09-09T00:02:54;16.70;99.90
44767;DHT22;30487;48.716;9.272;2022-09-09T00:05:23;16.60;99.90
44767;DHT22;30487;48.716;9.272;2022-09-09T00:07:54;16.70;99.90
44767;DHT22;30487;48.716;9.272;2022-09-09T00:17:48;16.60;99.90
44767;DHT22;30487;48.716;9.272;2022-09-09T00:20:19;16.60;99.90
44767;DHT22;30487;48.716;9.272;2022-09-09T00:22:47;16.60;99.90
44767;DHT22;30487;48.716;9.272;2022-09-09T00:25:37;16.50;99.90
44767;DHT22;30487;48.716;9.272;2022-09-09T00:28:09;16.40;99.90
44767;DHT22;30487;48.716;9.272;2022-09-09T00:30:38;16.40;99.90
44767;DHT22;30487;48.716;9.272;2022-09-09T00:33:11;16.30;99.90
44767;DHT22;30487;48.716;9.272;2022-09-09T00:35:56;16.20;99.90
44767;DHT22;30487;48.716;9.272;2022-09-09T00:40:50;16.10;99.90
44767;DHT22;30487;48.716;9.272;2022-09-09T00:43:33;16.10;99.90
44767;DHT22;30487;48.716;9.272;2022-09-09T00:48:47;16.10;99.90
44767;DHT22;30487;48.716;9.272;2022-09-09T00:51:23;16.10;99.90
44767;DHT22;30487;48.716;9.272;2022-09-09T00:56:26;16.10;99.90
44767;DHT22;30487;48.716;9.272;2022-09-09T00:59:03;16.20;99.90
44767;DHT22;30487;48.716;9.272;2022-09-09T01:01:31;16.20;99.90
44767;DHT22;30487;48.716;9.272;2022-09-09T01:03:57;16.10;99.90
44767;DHT22;30487;48.716;9.272;2022-09-09T01:06:32;16.00;99.90
44767;DHT22;30487;48.716;9.272;2022-09-09T01:14:30;15.90;99.90
44767;DHT22;30487;48.716;9.272;2022-09-09T01:16:58;15.90;99.90
44767;DHT22;30487;48.716;9.272;2022-09-09T01:19:33;15.90;99.90
44767;DHT22;30487;48.716;9.272;2022-09-09T01:27:34;15.80;99.90
44767;DHT22;30487;48.716;9.272;2022-09-09T01:30:00;15.80;99.90
44767;DHT22;30487;48.716;9.272;2022-09-09T01:32:46;15.90;99.90
44767;DHT22;30487;48.716;9.272;2022-09-09T01:35:17;15.90;99.90
44767;DHT22;30487;48.716;9.272;2022-09-09T01:37:44;15.90;99.90
44767;DHT22;30487;48.716;9.272;2022-09-09T01:40:10;15.90;99.90
44767;DHT22;30487;48.716;9.272;2022-09-09T01:42:36;15.90;99.90
44767;DHT22;30487;48.716;9.272;2022-09-09T01:45:02;15.90;99.90
44767;DHT22;30487;48.716;9.272;2022-09-09T01:47:28;15.90;99.90
44767;DHT22;30487;48.716;9.272;2022-09-09T01:49:54;15.90;99.90
44767;DHT22;30487;48.716;9.272;2022-09-09T01:52:19;15.90;99.90
44767;DHT22;30487;48.716;9.272;2022-09-09T01:54:45;15.90;99.90
44767;DHT22;30487;48.716;9.272;2022-09-09T01:59:48;15.90;99.90
44767;DHT22;30487;48.716;9.272;2022-09-09T02:02:21;15.90;99.90
44767;DHT22;30487;48.716;9.272;2022-09-09T02:04:50;16.00;99.90
44767;DHT22;30487;48.716;9.272;2022-09-09T02:08:00;15.90;99.90
44767;DHT22;30487;48.716;9.272;2022-09-09T02:12:31;15.80;99.90
44767;DHT22;30487;48.716;9.272;2022-09-09T02:15:00;15.80;99.90
44767;DHT22;30487;48.716;9.272;2022-09-09T02:17:27;15.70;99.90
44767;DHT22;30487;48.716;9.272;2022-09-09T02:19:56;15.60;99.90
44767;DHT22;30487;48.716;9.272;2022-09-09T02:22:23;15.60;99.90
44767;DHT22;30487;48.716;9.272;2022-09-09T02:24:50;15.50;99.90
44767;DHT22;30487;48.716;9.272;2022-09-09T02:27:20;15.50;99.90
44767;DHT22;30487;48.716;9.272;2022-09-09T02:29:46;15.40;99.90
44767;DHT22;30487;48.716;9.272;2022-09-09T02:32:22;15.30;99.90
44767;DHT22;30487;48.716;9.272;2022-09-09T02:34:53;15.20;99.90
44767;DHT22;30487;48.716;9.272;2022-09-09T02:37:22;15.30;99.90
44767;DHT22;30487;48.716;9.272;2022-09-09T02:39:48;15.20;99.90
44767;DHT22;30487;48.716;9.272;2022-09-09T02:42:14;15.20;99.90
44767;DHT22;30487;48.716;9.272;2022-09-09T02:44:40;15.10;99.90
44767;DHT22;30487;48.716;9.272;2022-09-09T02:50:02;15.10;99.90
44767;DHT22;30487;48.716;9.272;2022-09-09T02:55:03;15.10;99.90
44767;DHT22;30487;48.716;9.272;2022-09-09T02:57:30;15.10;99.90
44767;DHT22;30487;48.716;9.272;2022-09-09T02:59:58;15.00;99.90
44767;DHT22;30487;48.716;9.272;2022-09-09T03:02:24;15.00;99.90
44767;DHT22;30487;48.716;9.272;2022-09-09T03:04:50;15.00;99.90
44767;DHT22;30487;48.716;9.272;2022-09-09T03:07:17;15.00;99.90
44767;DHT22;30487;48.716;9.272;2022-09-09T03:09:43;15.00;99.90
44767;DHT22;30487;48.716;9.272;2022-09-09T03:12:08;15.00;99.90
44767;DHT22;30487;48.716;9.272;2022-09-09T03:14:35;15.00;99.90
44767;DHT22;30487;48.716;9.272;2022-09-09T03:17:00;15.10;99.90
44767;DHT22;30487;48.716;9.272;2022-09-09T03:19:27;15.10;99.90
44767;DHT22;30487;48.716;9.272;2022-09-09T03:21:53;15.10;99.90
44767;DHT22;30487;48.716;9.272;2022-09-09T03:24:18;15.20;99.90
44767;DHT22;30487;48.716;9.272;2022-09-09T03:26:45;15.10;99.90
44767;DHT22;30487;48.716;9.272;2022-09-09T03:29:11;15.20;99.90
44767;DHT22;30487;48.716;9.272;2022-09-09T03:31:37;15.20;99.90
44767;DHT22;30487;48.716;9.272;2022-09-09T03:34:03;15.20;99.90
44767;DHT22;30487;48.716;9.272;2022-09-09T03:36:28;15.10;99.90
44767;DHT22;30487;48.716;9.272;2022-09-09T03:38:54;15.20;99.90
44767;DHT22;30487;48.716;9.272;2022-09-09T03:41:20;15.20;99.90
44767;DHT22;30487;48.716;9.272;2022-09-09T03:43:47;15.20;99.90
44767;DHT22;30487;48.716;9.272;2022-09-09T03:46:12;15.20;99.90
44767;DHT22;30487;48.716;9.272;2022-09-09T03:48:38;15.20;99.90
44767;DHT22;30487;48.716;9.272;2022-09-09T03:51:03;15.10;99.90
44767;DHT22;30487;48.716;9.272;2022-09-09T03:53:29;15.00;99.90
44767;DHT22;30487;48.716;9.272;2022-09-09T03:55:55;15.00;99.90
44767;DHT22;30487;48.716;9.272;2022-09-09T03:58:23;15.00;99.90
44767;DHT22;30487;48.716;9.272;2022-09-09T04:01:02;15.00;99.90
44767;DHT22;30487;48.716;9.272;2022-09-09T04:03:29;15.00;99.90
44767;DHT22;30487;48.716;9.272;2022-09-09T04:05:55;15.00;99.90
44767;DHT22;30487;48.716;9.272;2022-09-09T04:08:21;15.00;99.90
44767;DHT22;30487;48.716;9.272;2022-09-09T04:10:47;15.00;99.90
44767;DHT22;30487;48.716;9.272;2022-09-09T04:13:13;14.90;99.90
44767;DHT22;30487;48.716;9.272;2022-09-09T04:15:40;14.80;99.90
44767;DHT22;30487;48.716;9.272;2022-09-09T04:18:06;14.80;99.90
44767;DHT22;30487;48.716;9.272;2022-09-09T04:20:31;14.70;99.90
44767;DHT22;30487;48.716;9.272;2022-09-09T04:22:57;14.70;99.90
44767;DHT22;30487;48.716;9.272;2022-09-09T04:25:23;14.70;99.90
44767;DHT22;30487;48.716;9.272;2022-09-09T04:27:52;14.70;99.90
44767;DHT22;30487;48.716;9.272;2022-09-09T04:30:19;14.70;99.90
44767;DHT22;30487;48.716;9.272;2022-09-09T04:32:45;14.70;99.90
44767;DHT22;30487;48.716;9.272;2022-09-09T04:35:10;14.70;99.90
44767;DHT22;30487;48.716;9.272;2022-09-09T04:37:36;14.80;99.90
44767;DHT22;30487;48.716;9.272;2022-09-09T04:40:01;14.80;99.90
44767;DHT22;30487;48.716;9.272;2022-09-09T04:42:27;14.80;99.90
44767;DHT22;30487;48.716;9.272;2022-09-09T04:44:53;14.80;99.90
44767;DHT22;30487;48.716;9.272;2022-09-09T04:47:19;14.90;99.90
44767;DHT22;30487;48.716;9.272;2022-09-09T04:49:45;14.90;99.90
44767;DHT22;30487;48.716;9.272;2022-09-09T04:52:10;14.90;99.90
44767;DHT22;30487;48.716;9.272;2022-09-09T04:54:36;14.90;99.90
44767;DHT22;30487;48.716;9.272;2022-09-09T04:57:01;14.90;99.90
44767;DHT22;30487;48.716;9.272;2022-09-09T04:59:27;14.90;99.90
44767;DHT22;30487;48.716;9.272;2022-09-09T05:01:52;14.90;99.90
44767;DHT22;30487;48.716;9.272;2022-09-09T05:04:20;15.00;99.90
44767;DHT22;30487;48.716;9.272;2022-09-09T05:06:45;14.90;99.90
44767;DHT22;30487;48.716;9.272;2022-09-09T05:09:11;15.00;99.90
44767;DHT22;30487;48.716;9.272;2022-09-09T05:11:36;15.00;99.90
44767;DHT22;30487;48.716;9.272;2022-09-09T05:14:03;15.10;99.90
44767;DHT22;30487;48.716;9.272;2022-09-09T05:16:29;15.00;99.90
44767;DHT22;30487;48.716;9.272;2022-09-09T05:18:55;15.00;99.90
44767;DHT22;30487;48.716;9.272;2022-09-09T05:21:21;15.10;99.90
44767;DHT22;30487;48.716;9.272;2022-09-09T05:23:48;15.10;99.90
44767;DHT22;30487;48.716;9.272;2022-09-09T05:26:18;15.00;99.90
44767;DHT22;30487;48.716;9.272;2022-09-09T05:28:44;15.10;99.90
44767;DHT22;30487;48.716;9.272;2022-09-09T05:31:10;15.10;99.90
44767;DHT22;30487;48.716;9.272;2022-09-09T05:33:39;15.10;99.90
44767;DHT22;30487;48.716;9.272;2022-09-09T05:36:09;15.20;99.90
44767;DHT22;30487;48.716;9.272;2022-09-09T05:38:36;15.20;99.90
44767;DHT22;30487;48.716;9.272;2022-09-09T05:41:02;15.20;99.90
44767;DHT22;30487;48.716;9.272;2022-09-09T05:43:28;15.30;99.90
44767;DHT22;30487;48.716;9.272;2022-09-09T05:46:10;15.40;99.90
44767;DHT22;30487;48.716;9.272;2022-09-09T05:48:40;15.50;99.90
44767;DHT22;30487;48.716;9.272;2022-09-09T05:51:07;15.70;99.90
44767;DHT22;30487;48.716;9.272;2022-09-09T05:53:32;15.70;99.90
44767;DHT22;30487;48.716;9.272;2022-09-09T05:56:02;15.90;99.90
44767;DHT22;30487;48.716;9.272;2022-09-09T05:58:31;15.90;99.90
44767;DHT22;30487;48.716;9.272;2022-09-09T06:01:01;15.90;99.90
44767;DHT22;30487;48.716;9.272;2022-09-09T06:03:27;15.90;99.90
44767;DHT22;30487;48.716;9.272;2022-09-09T06:05:59;15.90;99.90
44767;DHT22;30487;48.716;9.272;2022-09-09T06:08:24;15.90;99.90
44767;DHT22;30487;48.716;9.272;2022-09-09T06:10:50;16.00;99.90
44767;DHT22;30487;48.716;9.272;2022-09-09T06:13:17;16.00;99.90
44767;DHT22;30487;48.716;9.272;2022-09-09T06:15:49;16.10;99.90
44767;DHT22;30487;48.716;9.272;2022-09-09T06:18:15;16.20;99.90
44767;DHT22;30487;48.716;9.272;2022-09-09T06:20:56;16.20;99.90
44767;DHT22;30487;48.716;9.272;2022-09-09T06:23:22;16.20;99.90
44767;DHT22;30487;48.716;9.272;2022-09-09T06:25:48;16.20;99.90
44767;DHT22;30487;48.716;9.272;2022-09-09T06:28:14;16.20;99.90
44767;DHT22;30487;48.716;9.272;2022-09-09T06:30:40;16.30;99.90
44767;DHT22;30487;48.716;9.272;2022-09-09T06:33:06;16.50;99.90
44767;DHT22;30487;48.716;9.272;2022-09-09T06:35:32;16.50;99.90
44767;DHT22;30487;48.716;9.272;2022-09-09T06:37:57;16.50;99.90
44767;DHT22;30487;48.716;9.272;2022-09-09T06:40:24;16.50;99.90
44767;DHT22;30487;48.716;9.272;2022-09-09T06:42:49;16.50;99.90
44767;DHT22;30487;48.716;9.272;2022-09-09T06:45:15;16.50;99.90
44767;DHT22;30487;48.716;9.272;2022-09-09T06:47:40;16.60;99.90
44767;DHT22;30487;48.716;9.272;2022-09-09T06:50:07;16.70;99.90
44767;DHT22;30487;48.716;9.272;2022-09-09T06:52:33;16.80;99.90
44767;DHT22;30487;48.716;9.272;2022-09-09T06:54:58;16.80;99.90
44767;DHT22;30487;48.716;9.272;2022-09-09T06:57:24;16.80;99.90
44767;DHT22;30487;48.716;9.272;2022-09-09T06:59:49;16.90;99.90
44767;DHT22;30487;48.716;9.272;2022-09-09T07:02:15;17.00;99.90
44767;DHT22;30487;48.716;9.272;2022-09-09T07:04:41;17.10;99.90
44767;DHT22;30487;48.716;9.272;2022-09-09T07:07:06;17.10;99.90
44767;DHT22;30487;48.716;9.272;2022-09-09T07:09:33;17.20;99.90
44767;DHT22;30487;48.716;9.272;2022-09-09T07:11:59;17.40;99.90
44767;DHT22;30487;48.716;9.272;2022-09-09T07:14:24;17.60;99.90
44767;DHT22;30487;48.716;9.272;2022-09-09T07:16:50;17.70;99.90
44767;DHT22;30487;48.716;9.272;2022-09-09T07:19:16;17.70;99.90
44767;DHT22;30487;48.716;9.272;2022-09-09T07:21:41;17.90;99.90
44767;DHT22;30487;48.716;9.272;2022-09-09T07:24:07;18.00;99.90
44767;DHT22;30487;48.716;9.272;2022-09-09T07:26:35;18.00;99.90
44767;DHT22;30487;48.716;9.272;2022-09-09T07:29:01;18.00;99.90
44767;DHT22;30487;48.716;9.272;2022-09-09T07:31:27;18.10;99.90
44767;DHT22;30487;48.716;9.272;2022-09-09T07:33:55;18.10;99.90
44767;DHT22;30487;48.716;9.272;2022-09-09T07:36:22;18.20;99.90
44767;DHT22;30487;48.716;9.272;2022-09-09T07:38:49;18.20;99.90
44767;DHT22;30487;48.716;9.272;2022-09-09T07:41:23;18.40;99.90
44767;DHT22;30487;48.716;9.272;2022-09-09T07:43:50;18.50;99.90
44767;DHT22;30487;48.716;9.272;2022-09-09T07:46:17;18.60;99.90
44767;DHT22;30487;48.716;9.272;2022-09-09T07:48:44;18.70;99.90
44767;DHT22;30487;48.716;9.272;2022-09-09T07:51:11;18.80;99.90
44767;DHT22;30487;48.716;9.272;2022-09-09T07:53:37;18.90;99.90
44767;DHT22;30487;48.716;9.272;2022-09-09T07:56:04;18.90;99.90
44767;DHT22;30487;48.716;9.272;2022-09-09T07:58:30;19.00;99.90
44767;DHT22;30487;48.716;9.272;2022-09-09T08:00:56;19.10;99.90
44767;DHT22;30487;48.716;9.272;2022-09-09T08:03:22;19.30;99.90
44767;DHT22;30487;48.716;9.272;2022-09-09T08:05:48;19.50;99.90
44767;DHT22;30487;48.716;9.272;2022-09-09T08:08:14;19.80;99.90
44767;DHT22;30487;48.716;9.272;2022-09-09T08:10:42;20.10;99.90
44767;DHT22;30487;48.716;9.272;2022-09-09T08:13:08;20.40;99.90
44767;DHT22;30487;48.716;9.272;2022-09-09T08:15:33;20.40;99.90
44767;DHT22;30487;48.716;9.272;2022-09-09T08:17:59;20.40;99.90
44767;DHT22;30487;48.716;9.272;2022-09-09T08:20:25;20.40;99.90
44767;DHT22;30487;48.716;9.272;2022-09-09T08:22:50;20.40;99.90
44767;DHT22;30487;48.716;9.272;2022-09-09T08:25:16;20.60;99.90
44767;DHT22;30487;48.716;9.272;2022-09-09T08:27:41;20.80;99.90
44767;DHT22;30487;48.716;9.272;2022-09-09T08:30:07;21.10;99.90
44767;DHT22;30487;48.716;9.272;2022-09-09T08:32:33;21.40;99.90
44767;DHT22;30487;48.716;9.272;2022-09-09T08:35:00;21.60;99.90
44767;DHT22;30487;48.716;9.272;2022-09-09T08:37:25;21.80;99.90
44767;DHT22;30487;48.716;9.272;2022-09-09T08:39:51;21.80;99.90
44767;DHT22;30487;48.716;9.272;2022-09-09T08:42:31;21.90;99.90
44767;DHT22;30487;48.716;9.272;2022-09-09T08:55:20;22.60;97.70
44767;DHT22;30487;48.716;9.272;2022-09-09T08:57:51;22.70;97.60
44767;DHT22;30487;48.716;9.272;2022-09-09T09:00:18;23.00;98.00
44767;DHT22;30487;48.716;9.272;2022-09-09T09:12:50;22.60;96.40
44767;DHT22;30487;48.716;9.272;2022-09-09T09:15:18;23.00;96.40
44767;DHT22;30487;48.716;9.272;2022-09-09T09:17:44;23.30;95.80
44767;DHT22;30487;48.716;9.272;2022-09-09T09:20:13;23.60;95.00
44767;DHT22;30487;48.716;9.272;2022-09-09T09:22:50;23.70;94.60
44767;DHT22;30487;48.716;9.272;2022-09-09T09:25:17;23.80;93.90
44767;DHT22;30487;48.716;9.272;2022-09-09T09:30:16;24.30;93.20
44767;DHT22;30487;48.716;9.272;2022-09-09T09:32:44;24.70;91.90
44767;DHT22;30487;48.716;9.272;2022-09-09T09:35:14;24.80;91.50
44767;DHT22;30487;48.716;9.272;2022-09-09T09:37:40;24.50;87.70
44767;DHT22;30487;48.716;9.272;2022-09-09T09:40:12;24.10;82.80
44767;DHT22;30487;48.716;9.272;2022-09-09T09:42:48;23.70;83.60
44767;DHT22;30487;48.716;9.272;2022-09-09T09:45:27;23.40;85.30
44767;DHT22;30487;48.716;9.272;2022-09-09T09:48:01;23.30;86.90
44767;DHT22;30487;48.716;9.272;2022-09-09T09:50:27;23.70;85.70
44767;DHT22;30487;48.716;9.272;2022-09-09T09:52:53;24.20;84.10
44767;DHT22;30487;48.716;9.272;2022-09-09T09:55:19;24.60;81.80
44767;DHT22;30487;48.716;9.272;2022-09-09T09:57:45;24.90;81.90
44767;DHT22;30487;48.716;9.272;2022-09-09T10:00:14;25.00;81.00
44767;DHT22;30487;48.716;9.272;2022-09-09T10:02:41;25.40;81.20
44767;DHT22;30487;48.716;9.272;2022-09-09T10:05:28;25.10;80.90
44767;DHT22;30487;48.716;9.272;2022-09-09T10:08:01;25.40;80.90
44767;DHT22;30487;48.716;9.272;2022-09-09T10:10:36;25.40;80.00
44767;DHT22;30487;48.716;9.272;2022-09-09T10:23:20;27.10;79.10
44767;DHT22;30487;48.716;9.272;2022-09-09T10:25:56;27.10;81.70
44767;DHT22;30487;48.716;9.272;2022-09-09T10:28:35;27.30;80.30
44767;DHT22;30487;48.716;9.272;2022-09-09T10:31:16;27.50;78.90
44767;DHT22;30487;48.716;9.272;2022-09-09T10:33:59;27.70;76.70
44767;DHT22;30487;48.716;9.272;2022-09-09T10:36:26;27.70;76.10
44767;DHT22;30487;48.716;9.272;2022-09-09T10:44:14;27.80;74.30
44767;DHT22;30487;48.716;9.272;2022-09-09T10:49:19;28.00;73.10
44767;DHT22;30487;48.716;9.272;2022-09-09T10:56:56;28.60;72.90
44767;DHT22;30487;48.716;9.272;2022-09-09T10:59:28;28.60;72.00
44767;DHT22;30487;48.716;9.272;2022-09-09T11:01:59;27.90;71.40
44767;DHT22;30487;48.716;9.272;2022-09-09T11:04:35;27.40;72.20
44767;DHT22;30487;48.716;9.272;2022-09-09T11:07:05;27.20;73.20
44767;DHT22;30487;48.716;9.272;2022-09-09T11:09:33;27.60;72.20
44767;DHT22;30487;48.716;9.272;2022-09-09T11:12:02;27.60;64.80
44767;DHT22;30487;48.716;9.272;2022-09-09T11:14:39;27.80;69.60
44767;DHT22;30487;48.716;9.272;2022-09-09T11:17:12;27.80;69.30
44767;DHT22;30487;48.716;9.272;2022-09-09T11:19:40;27.20;67.60
44767;DHT22;30487;48.716;9.272;2022-09-09T11:24:50;25.50;67.80
44767;DHT22;30487;48.716;9.272;2022-09-09T11:27:21;25.10;72.30
44767;DHT22;30487;48.716;9.272;2022-09-09T11:29:53;24.90;73.00
44767;DHT22;30487;48.716;9.272;2022-09-09T11:42:23;22.80;87.30
44767;DHT22;30487;48.716;9.272;2022-09-09T11:44:49;22.60;87.90
44767;DHT22;30487;48.716;9.272;2022-09-09T11:47:28;22.30;89.90
44767;DHT22;30487;48.716;9.272;2022-09-09T11:50:06;22.30;90.40
44767;DHT22;30487;48.716;9.272;2022-09-09T11:52:36;22.50;90.30
44767;DHT22;30487;48.716;9.272;2022-09-09T11:55:11;22.70;88.50
44767;DHT22;30487;48.716;9.272;2022-09-09T11:57:49;22.60;86.50
44767;DHT22;30487;48.716;9.272;2022-09-09T12:00:36;22.70;87.10
44767;DHT22;30487;48.716;9.272;2022-09-09T12:03:02;22.80;86.20
44767;DHT22;30487;48.716;9.272;2022-09-09T12:05:35;22.70;85.60
44767;DHT22;30487;48.716;9.272;2022-09-09T12:08:01;23.40;83.40
44767;DHT22;30487;48.716;9.272;2022-09-09T12:10:32;23.80;81.10
44767;DHT22;30487;48.716;9.272;2022-09-09T12:13:17;23.70;80.30
44767;DHT22;30487;48.716;9.272;2022-09-09T12:15:48;23.70;81.00
44767;DHT22;30487;48.716;9.272;2022-09-09T12:18:15;23.70;79.20
44767;DHT22;30487;48.716;9.272;2022-09-09T12:20:52;23.50;80.00
44767;DHT22;30487;48.716;9.272;2022-09-09T12:28:18;24.80;77.00
44767;DHT22;30487;48.716;9.272;2022-09-09T12:31:46;25.60;74.40
44767;DHT22;30487;48.716;9.272;2022-09-09T12:33:43;25.60;71.90
44767;DHT22;30487;48.716;9.272;2022-09-09T12:36:17;25.10;70.50
44767;DHT22;30487;48.716;9.272;2022-09-09T12:38:44;25.20;70.80
44767;DHT22;30487;48.716;9.272;2022-09-09T12:41:23;25.30;70.50
44767;DHT22;30487;48.716;9.272;2022-09-09T12:43:49;26.10;70.80
44767;DHT22;30487;48.716;9.272;2022-09-09T12:46:58;26.70;68.60
44767;DHT22;30487;48.716;9.272;2022-09-09T12:49:04;27.20;68.10
44767;DHT22;30487;48.716;9.272;2022-09-09T12:51:30;27.50;65.60
44767;DHT22;30487;48.716;9.272;2022-09-09T12:53:56;26.90;65.90
44767;DHT22;30487;48.716;9.272;2022-09-09T12:56:24;25.70;67.60
44767;DHT22;30487;48.716;9.272;2022-09-09T12:58:52;24.70;69.60
44767;DHT22;30487;48.716;9.272;2022-09-09T13:01:25;24.40;71.80
44767;DHT22;30487;48.716;9.272;2022-09-09T13:03:51;24.10;71.70
44767;DHT22;30487;48.716;9.272;2022-09-09T13:06:24;23.60;72.70
44767;DHT22;30487;48.716;9.272;2022-09-09T13:08:51;23.30;74.20
44767;DHT22;30487;48.716;9.272;2022-09-09T13:11:18;23.20;74.60
44767;DHT22;30487;48.716;9.272;2022-09-09T13:13:49;23.10;74.80
44767;DHT22;30487;48.716;9.272;2022-09-09T13:16:20;23.20;76.00
44767;DHT22;30487;48.716;9.272;2022-09-09T13:18:46;23.40;74.70
44767;DHT22;30487;48.716;9.272;2022-09-09T13:21:11;23.40;74.40
44767;DHT22;30487;48.716;9.272;2022-09-09T13:23:37;23.40;73.70
44767;DHT22;30487;48.716;9.272;2022-09-09T13:28:47;23.20;73.30
44767;DHT22;30487;48.716;9.272;2022-09-09T13:31:23;22.90;71.60
44767;DHT22;30487;48.716;9.272;2022-09-09T13:33:49;23.10;73.10
44767;DHT22;30487;48.716;9.272;2022-09-09T13:36:15;23.60;72.00
44767;DHT22;30487;48.716;9.272;2022-09-09T13:38:53;24.00;70.60
44767;DHT22;30487;48.716;9.272;2022-09-09T13:41:20;24.50;70.30
44767;DHT22;30487;48.716;9.272;2022-09-09T13:43:47;25.00;69.30
44767;DHT22;30487;48.716;9.272;2022-09-09T13:51:46;26.60;67.50
44767;DHT22;30487;48.716;9.272;2022-09-09T13:54:13;26.90;67.60
44767;DHT22;30487;48.716;9.272;2022-09-09T13:56:39;26.30;67.20
44767;DHT22;30487;48.716;9.272;2022-09-09T13:59:05;26.00;68.80
44767;DHT22;30487;48.716;9.272;2022-09-09T14:01:31;26.10;69.30
44767;DHT22;30487;48.716;9.272;2022-09-09T14:04:00;26.20;68.10
44767;DHT22;30487;48.716;9.272;2022-09-09T14:06:25;26.40;68.00
44767;DHT22;30487;48.716;9.272;2022-09-09T14:08:51;26.40;68.30
44767;DHT22;30487;48.716;9.272;2022-09-09T14:11:17;26.60;67.80
44767;DHT22;30487;48.716;9.272;2022-09-09T14:13:43;26.80;67.50
44767;DHT22;30487;48.716;9.272;2022-09-09T14:16:09;26.90;66.90
44767;DHT22;30487;48.716;9.272;2022-09-09T14:18:35;26.80;65.70
44767;DHT22;30487;48.716;9.272;2022-09-09T14:21:00;26.50;65.10
44767;DHT22;30487;48.716;9.272;2022-09-09T14:23:28;26.30;66.10
44767;DHT22;30487;48.716;9.272;2022-09-09T14:25:54;26.60;66.20
44767;DHT22;30487;48.716;9.272;2022-09-09T14:28:20;26.80;66.10
44767;DHT22;30487;48.716;9.272;2022-09-09T14:30:45;27.10;65.40
44767;DHT22;30487;48.716;9.272;2022-09-09T14:33:12;27.10;64.20
44767;DHT22;30487;48.716;9.272;2022-09-09T14:35:39;26.50;63.70
44767;DHT22;30487;48.716;9.272;2022-09-09T14:38:06;26.70;62.70
44767;DHT22;30487;48.716;9.272;2022-09-09T14:40:33;27.70;62.40
44767;DHT22;30487;48.716;9.272;2022-09-09T14:42:59;27.70;59.60
44767;DHT22;30487;48.716;9.272;2022-09-09T14:45:25;27.40;61.30
44767;DHT22;30487;48.716;9.272;2022-09-09T14:47:51;26.40;60.30
44767;DHT22;30487;48.716;9.272;2022-09-09T14:50:17;25.70;61.60
44767;DHT22;30487;48.716;9.272;2022-09-09T14:52:43;25.50;62.00
44767;DHT22;30487;48.716;9.272;2022-09-09T14:55:09;25.40;63.00
44767;DHT22;30487;48.716;9.272;2022-09-09T14:57:35;25.60;63.30
44767;DHT22;30487;48.716;9.272;2022-09-09T15:00:02;25.40;62.00
44767;DHT22;30487;48.716;9.272;2022-09-09T15:02:27;25.20;63.20
44767;DHT22;30487;48.716;9.272;2022-09-09T15:04:55;25.20;61.20
44767;DHT22;30487;48.716;9.272;2022-09-09T15:07:22;25.20;62.90
44767;DHT22;30487;48.716;9.272;2022-09-09T15:09:48;25.30;61.60
44767;DHT22;30487;48.716;9.272;2022-09-09T15:12:14;24.90;61.90
44767;DHT22;30487;48.716;9.272;2022-09-09T15:14:39;25.10;63.40
44767;DHT22;30487;48.716;9.272;2022-09-09T15:17:05;25.30;63.20
44767;DHT22;30487;48.716;9.272;2022-09-09T15:19:31;25.40;62.70
44767;DHT22;30487;48.716;9.272;2022-09-09T15:21:57;25.50;62.30
44767;DHT22;30487;48.716;9.272;2022-09-09T15:24:22;25.50;62.90
44767;DHT22;30487;48.716;9.272;2022-09-09T15:26:48;25.50;62.30
44767;DHT22;30487;48.716;9.272;2022-09-09T15:29:13;25.50;62.60
44767;DHT22;30487;48.716;9.272;2022-09-09T15:31:39;25.50;63.00
44767;DHT22;30487;48.716;9.272;2022-09-09T15:34:05;25.70;63.50
44767;DHT22;30487;48.716;9.272;2022-09-09T15:36:32;25.70;63.60
44767;DHT22;30487;48.716;9.272;2022-09-09T15:38:58;25.60;63.30
44767;DHT22;30487;48.716;9.272;2022-09-09T15:41:24;25.50;64.00
44767;DHT22;30487;48.716;9.272;2022-09-09T15:43:50;25.40;64.10
44767;DHT22;30487;48.716;9.272;2022-09-09T15:48:41;25.00;63.80
44767;DHT22;30487;48.716;9.272;2022-09-09T15:51:07;24.60;63.70
44767;DHT22;30487;48.716;9.272;2022-09-09T15:53:33;24.30;65.10
44767;DHT22;30487;48.716;9.272;2022-09-09T15:55:59;24.00;64.50
44767;DHT22;30487;48.716;9.272;2022-09-09T15:58:25;23.70;63.80
44767;DHT22;30487;48.716;9.272;2022-09-09T16:00:50;23.50;64.50
44767;DHT22;30487;48.716;9.272;2022-09-09T16:03:16;23.30;65.10
44767;DHT22;30487;48.716;9.272;2022-09-09T16:05:42;23.20;65.10
44767;DHT22;30487;48.716;9.272;2022-09-09T16:08:08;22.90;64.70
44767;DHT22;30487;48.716;9.272;2022-09-09T16:10:34;22.70;64.80
44767;DHT22;30487;48.716;9.272;2022-09-09T16:12:59;22.50;65.30
44767;DHT22;30487;48.716;9.272;2022-09-09T16:15:25;22.30;66.30
44767;DHT22;30487;48.716;9.272;2022-09-09T16:17:53;22.10;66.50
44767;DHT22;30487;48.716;9.272;2022-09-09T16:20:18;22.00;67.30
44767;DHT22;30487;48.716;9.272;2022-09-09T16:22:44;21.90;67.50
44767;DHT22;30487;48.716;9.272;2022-09-09T16:25:09;21.80;68.10
44767;DHT22;30487;48.716;9.272;2022-09-09T16:27:35;21.60;68.40
44767;DHT22;30487;48.716;9.272;2022-09-09T16:30:01;21.40;68.50
44767;DHT22;30487;48.716;9.272;2022-09-09T16:32:26;21.40;68.90
44767;DHT22;30487;48.716;9.272;2022-09-09T16:34:52;21.30;69.10
44767;DHT22;30487;48.716;9.272;2022-09-09T16:37:17;21.40;69.10
44767;DHT22;30487;48.716;9.272;2022-09-09T16:39:43;21.40;69.80
44767;DHT22;30487;48.716;9.272;2022-09-09T16:42:08;21.40;70.30
44767;DHT22;30487;48.716;9.272;2022-09-09T16:44:34;21.30;70.50
44767;DHT22;30487;48.716;9.272;2022-09-09T16:47:00;21.30;71.30
44767;DHT22;30487;48.716;9.272;2022-09-09T16:49:25;21.40;71.10
44767;DHT22;30487;48.716;9.272;2022-09-09T16:51:52;21.40;71.50
44767;DHT22;30487;48.716;9.272;2022-09-09T16:54:18;21.30;72.40
44767;DHT22;30487;48.716;9.272;2022-09-09T16:56:44;21.50;72.10
44767;DHT22;30487;48.716;9.272;2022-09-09T16:59:11;21.50;72.40
44767;DHT22;30487;48.716;9.272;2022-09-09T17:01:37;21.60;73.00
44767;DHT22;30487;48.716;9.272;2022-09-09T17:04:05;21.50;72.80
44767;DHT22;30487;48.716;9.272;2022-09-09T17:06:31;21.40;72.10
44767;DHT22;30487;48.716;9.272;2022-09-09T17:08:58;21.50;71.70
44767;DHT22;30487;48.716;9.272;2022-09-09T17:11:23;21.40;72.40
44767;DHT22;30487;48.716;9.272;2022-09-09T17:13:49;21.20;73.70
44767;DHT22;30487;48.716;9.272;2022-09-09T17:16:16;21.00;73.90
44767;DHT22;30487;48.716;9.272;2022-09-09T17:18:42;21.00;73.50
44767;DHT22;30487;48.716;9.272;2022-09-09T17:21:09;20.90;74.20
44767;DHT22;30487;48.716;9.272;2022-09-09T17:23:34;20.80;75.10
44767;DHT22;30487;48.716;9.272;2022-09-09T17:26:06;20.70;74.40